sensor_id;sensor_type;location;lat;lon;timestamp;temperature;humidity
22813;DHT22;11573;51.334;3.244;2024-03-02T00:01:36;6.30;99.90
22813;DHT22;11573;51.334;3.244;2024-03-02T00:04:04;6.20;99.90
22813;DHT22;11573;51.334;3.244;2024-03-02T00:06:34;6.20;99.90
22813;DHT22;11573;51.334;3.244;2024-03-02T00:09:01;6.20;99.90
22813;DHT22;11573;51.334;3.244;2024-03-02T00:11:29;6.20;99.90
22813;DHT22;11573;51.334;3.244;2024-03-02T00:13:57;6.20;99.90
22813;DHT22;11573;51.334;3.244;2024-03-02T00:16:24;6.20;99.90
22813;DHT22;11573;51.334;3.244;2024-03-02T00:18:56;6.20;99.90
22813;DHT22;11573;51.334;3.244;2024-03-02T00:21:29;6.20;99.90
22813;DHT22;11573;51.334;3.244;2024-03-02T00:23:58;6.10;99.90
22813;DHT22;11573;51.334;3.244;2024-03-02T00:26:25;6.10;99.90
22813;DHT22;11573;51.334;3.244;2024-03-02T00:28:55;6.00;99.90
22813;DHT22;11573;51.334;3.244;2024-03-02T00:31:24;6.00;99.90
22813;DHT22;11573;51.334;3.244;2024-03-02T00:33:52;5.90;99.90
22813;DHT22;11573;51.334;3.244;2024-03-02T00:36:25;6.00;99.90
22813;DHT22;11573;51.334;3.244;2024-03-02T00:38:54;5.90;99.90
22813;DHT22;11573;51.334;3.244;2024-03-02T00:41:29;5.90;99.90
22813;DHT22;11573;51.334;3.244;2024-03-02T00:44:04;5.90;99.90
22813;DHT22;11573;51.334;3.244;2024-03-02T00:46:37;5.90;99.90
22813;DHT22;11573;51.334;3.244;2024-03-02T00:49:21;5.80;99.90
22813;DHT22;11573;51.334;3.244;2024-03-02T00:51:50;5.80;99.90
22813;DHT22;11573;51.334;3.244;2024-03-02T00:54:25;5.80;99.90
22813;DHT22;11573;51.334;3.244;2024-03-02T00:56:53;5.80;99.90
22813;DHT22;11573;51.334;3.244;2024-03-02T00:59:23;5.70;99.90
22813;DHT22;11573;51.334;3.244;2024-03-02T01:01:50;5.70;99.90
22813;DHT22;11573;51.334;3.244;2024-03-02T01:04:17;5.70;99.90
22813;DHT22;11573;51.334;3.244;2024-03-02T01:06:44;5.70;99.90
22813;DHT22;11573;51.334;3.244;2024-03-02T01:09:12;5.70;99.90
22813;DHT22;11573;51.334;3.244;2024-03-02T01:11:39;5.70;99.90
22813;DHT22;11573;51.334;3.244;2024-03-02T01:14:07;5.70;99.90
22813;DHT22;11573;51.334;3.244;2024-03-02T01:16:34;5.60;99.90
22813;DHT22;11573;51.334;3.244;2024-03-02T01:19:01;5.70;99.90
22813;DHT22;11573;51.334;3.244;2024-03-02T01:21:28;5.60;99.90
22813;DHT22;11573;51.334;3.244;2024-03-02T01:23:55;5.60;99.90
22813;DHT22;11573;51.334;3.244;2024-03-02T01:26:22;5.60;99.90
22813;DHT22;11573;51.334;3.244;2024-03-02T01:28:49;5.60;99.90
22813;DHT22;11573;51.334;3.244;2024-03-02T01:31:16;5.60;99.90
22813;DHT22;11573;51.334;3.244;2024-03-02T01:33:43;5.60;99.90
22813;DHT22;11573;51.334;3.244;2024-03-02T01:36:10;5.50;99.90
22813;DHT22;11573;51.334;3.244;2024-03-02T01:38:37;5.50;99.90
22813;DHT22;11573;51.334;3.244;2024-03-02T01:41:04;5.50;99.90
22813;DHT22;11573;51.334;3.244;2024-03-02T01:43:31;5.50;99.90
22813;DHT22;11573;51.334;3.244;2024-03-02T01:45:58;5.50;99.90
22813;DHT22;11573;51.334;3.244;2024-03-02T01:48:26;5.50;99.90
22813;DHT22;11573;51.334;3.244;2024-03-02T01:50:53;5.50;99.90
22813;DHT22;11573;51.334;3.244;2024-03-02T01:53:20;5.50;99.90
22813;DHT22;11573;51.334;3.244;2024-03-02T01:55:47;5.40;99.90
22813;DHT22;11573;51.334;3.244;2024-03-02T01:58:14;5.50;99.90
22813;DHT22;11573;51.334;3.244;2024-03-02T02:00:41;5.40;99.90
22813;DHT22;11573;51.334;3.244;2024-03-02T02:03:09;5.40;99.90
22813;DHT22;11573;51.334;3.244;2024-03-02T02:05:36;5.30;99.90
22813;DHT22;11573;51.334;3.244;2024-03-02T02:08:03;5.50;99.90
22813;DHT22;11573;51.334;3.244;2024-03-02T02:10:30;5.40;99.90
22813;DHT22;11573;51.334;3.244;2024-03-02T02:12:58;5.30;99.90
22813;DHT22;11573;51.334;3.244;2024-03-02T02:15:29;5.30;99.90
22813;DHT22;11573;51.334;3.244;2024-03-02T02:17:58;5.30;99.90
22813;DHT22;11573;51.334;3.244;2024-03-02T02:20:26;5.30;99.90
22813;DHT22;11573;51.334;3.244;2024-03-02T02:23:00;5.30;99.90
22813;DHT22;11573;51.334;3.244;2024-03-02T02:25:28;5.20;99.90
22813;DHT22;11573;51.334;3.244;2024-03-02T02:27:57;5.20;99.90
22813;DHT22;11573;51.334;3.244;2024-03-02T02:30:30;5.20;99.90
22813;DHT22;11573;51.334;3.244;2024-03-02T02:32:57;5.10;99.90
22813;DHT22;11573;51.334;3.244;2024-03-02T02:35:25;5.10;99.90
22813;DHT22;11573;51.334;3.244;2024-03-02T02:37:54;5.00;99.90
22813;DHT22;11573;51.334;3.244;2024-03-02T02:40:21;5.00;99.90
22813;DHT22;11573;51.334;3.244;2024-03-02T02:42:48;5.00;99.90
22813;DHT22;11573;51.334;3.244;2024-03-02T02:45:15;5.00;99.90
22813;DHT22;11573;51.334;3.244;2024-03-02T02:47:44;5.00;99.90
22813;DHT22;11573;51.334;3.244;2024-03-02T02:50:12;5.10;99.90
22813;DHT22;11573;51.334;3.244;2024-03-02T02:52:41;5.10;99.90
22813;DHT22;11573;51.334;3.244;2024-03-02T02:55:10;5.10;99.90
22813;DHT22;11573;51.334;3.244;2024-03-02T02:57:39;5.00;99.90
22813;DHT22;11573;51.334;3.244;2024-03-02T03:00:12;5.00;99.90
22813;DHT22;11573;51.334;3.244;2024-03-02T03:02:47;4.90;99.90
22813;DHT22;11573;51.334;3.244;2024-03-02T03:05:16;4.80;99.90
22813;DHT22;11573;51.334;3.244;2024-03-02T03:07:43;4.80;99.90
22813;DHT22;11573;51.334;3.244;2024-03-02T03:10:16;4.80;99.90
22813;DHT22;11573;51.334;3.244;2024-03-02T03:12:43;4.80;99.90
22813;DHT22;11573;51.334;3.244;2024-03-02T03:15:11;4.80;99.90
22813;DHT22;11573;51.334;3.244;2024-03-02T03:17:39;4.80;99.90
22813;DHT22;11573;51.334;3.244;2024-03-02T03:20:07;4.80;99.90
22813;DHT22;11573;51.334;3.244;2024-03-02T03:22:37;4.80;99.90
22813;DHT22;11573;51.334;3.244;2024-03-02T03:25:05;4.80;99.90
22813;DHT22;11573;51.334;3.244;2024-03-02T03:27:32;4.80;99.90
22813;DHT22;11573;51.334;3.244;2024-03-02T03:29:59;4.70;99.90
22813;DHT22;11573;51.334;3.244;2024-03-02T03:32:26;4.70;99.90
22813;DHT22;11573;51.334;3.244;2024-03-02T03:34:53;4.60;99.90
22813;DHT22;11573;51.334;3.244;2024-03-02T03:37:21;4.60;99.90
22813;DHT22;11573;51.334;3.244;2024-03-02T03:39:48;4.60;99.90
22813;DHT22;11573;51.334;3.244;2024-03-02T03:42:15;4.60;99.90
22813;DHT22;11573;51.334;3.244;2024-03-02T03:44:42;4.60;99.90
22813;DHT22;11573;51.334;3.244;2024-03-02T03:47:09;4.60;99.90
22813;DHT22;11573;51.334;3.244;2024-03-02T03:49:36;4.60;99.90
22813;DHT22;11573;51.334;3.244;2024-03-02T03:52:03;4.60;99.90
22813;DHT22;11573;51.334;3.244;2024-03-02T03:54:31;4.60;99.90
22813;DHT22;11573;51.334;3.244;2024-03-02T03:56:58;4.50;99.90
22813;DHT22;11573;51.334;3.244;2024-03-02T03:59:25;4.50;99.90
22813;DHT22;11573;51.334;3.244;2024-03-02T04:01:52;4.50;99.90
22813;DHT22;11573;51.334;3.244;2024-03-02T04:04:20;4.50;99.90
22813;DHT22;11573;51.334;3.244;2024-03-02T04:06:47;4.60;99.90
22813;DHT22;11573;51.334;3.244;2024-03-02T04:09:14;4.50;99.90
22813;DHT22;11573;51.334;3.244;2024-03-02T04:11:41;4.60;99.90
22813;DHT22;11573;51.334;3.244;2024-03-02T04:14:08;4.60;99.90
22813;DHT22;11573;51.334;3.244;2024-03-02T04:16:35;4.70;99.90
22813;DHT22;11573;51.334;3.244;2024-03-02T04:19:02;4.70;99.90
22813;DHT22;11573;51.334;3.244;2024-03-02T04:21:31;4.80;99.90
22813;DHT22;11573;51.334;3.244;2024-03-02T04:23:58;4.80;99.90
22813;DHT22;11573;51.334;3.244;2024-03-02T04:26:26;4.70;99.90
22813;DHT22;11573;51.334;3.244;2024-03-02T04:28:53;4.70;99.90
22813;DHT22;11573;51.334;3.244;2024-03-02T04:31:21;4.60;99.90
22813;DHT22;11573;51.334;3.244;2024-03-02T04:33:48;4.60;99.90
22813;DHT22;11573;51.334;3.244;2024-03-02T04:36:15;4.60;99.90
22813;DHT22;11573;51.334;3.244;2024-03-02T04:38:42;4.60;99.90
22813;DHT22;11573;51.334;3.244;2024-03-02T04:41:09;4.60;99.90
22813;DHT22;11573;51.334;3.244;2024-03-02T04:43:36;4.60;99.90
22813;DHT22;11573;51.334;3.244;2024-03-02T04:46:04;4.70;99.90
22813;DHT22;11573;51.334;3.244;2024-03-02T04:48:31;4.60;99.90
22813;DHT22;11573;51.334;3.244;2024-03-02T04:50:59;4.60;99.90
22813;DHT22;11573;51.334;3.244;2024-03-02T04:53:26;4.60;99.90
22813;DHT22;11573;51.334;3.244;2024-03-02T04:55:53;4.60;99.90
22813;DHT22;11573;51.334;3.244;2024-03-02T04:58:22;4.60;99.90
22813;DHT22;11573;51.334;3.244;2024-03-02T05:00:49;4.60;99.90
22813;DHT22;11573;51.334;3.244;2024-03-02T05:03:16;4.60;99.90
22813;DHT22;11573;51.334;3.244;2024-03-02T05:05:43;4.50;99.90
22813;DHT22;11573;51.334;3.244;2024-03-02T05:08:11;4.50;99.90
22813;DHT22;11573;51.334;3.244;2024-03-02T05:10:39;4.50;99.90
22813;DHT22;11573;51.334;3.244;2024-03-02T05:13:06;4.50;99.90
22813;DHT22;11573;51.334;3.244;2024-03-02T05:15:34;4.50;99.90
22813;DHT22;11573;51.334;3.244;2024-03-02T05:18:01;4.50;99.90
22813;DHT22;11573;51.334;3.244;2024-03-02T05:20:32;4.60;99.90
22813;DHT22;11573;51.334;3.244;2024-03-02T05:22:59;4.50;99.90
22813;DHT22;11573;51.334;3.244;2024-03-02T05:25:26;4.50;99.90
22813;DHT22;11573;51.334;3.244;2024-03-02T05:27:53;4.50;99.90
22813;DHT22;11573;51.334;3.244;2024-03-02T05:30:20;4.40;99.90
22813;DHT22;11573;51.334;3.244;2024-03-02T05:32:47;4.40;99.90
22813;DHT22;11573;51.334;3.244;2024-03-02T05:35:14;4.50;99.90
22813;DHT22;11573;51.334;3.244;2024-03-02T05:37:42;4.50;99.90
22813;DHT22;11573;51.334;3.244;2024-03-02T05:40:09;4.50;99.90
22813;DHT22;11573;51.334;3.244;2024-03-02T05:42:38;4.50;99.90
22813;DHT22;11573;51.334;3.244;2024-03-02T05:45:05;4.50;99.90
22813;DHT22;11573;51.334;3.244;2024-03-02T05:47:32;4.50;99.90
22813;DHT22;11573;51.334;3.244;2024-03-02T05:49:59;4.50;99.90
22813;DHT22;11573;51.334;3.244;2024-03-02T05:52:26;4.50;99.90
22813;DHT22;11573;51.334;3.244;2024-03-02T05:54:54;4.50;99.90
22813;DHT22;11573;51.334;3.244;2024-03-02T05:57:22;4.40;99.90
22813;DHT22;11573;51.334;3.244;2024-03-02T06:00:03;4.50;99.90
22813;DHT22;11573;51.334;3.244;2024-03-02T06:02:41;4.50;99.90
22813;DHT22;11573;51.334;3.244;2024-03-02T06:05:08;4.40;99.90
22813;DHT22;11573;51.334;3.244;2024-03-02T06:07:35;4.40;99.90
22813;DHT22;11573;51.334;3.244;2024-03-02T06:10:03;4.50;99.90
22813;DHT22;11573;51.334;3.244;2024-03-02T06:12:31;4.50;99.90
22813;DHT22;11573;51.334;3.244;2024-03-02T06:14:59;4.50;99.90
22813;DHT22;11573;51.334;3.244;2024-03-02T06:17:26;4.50;99.90
22813;DHT22;11573;51.334;3.244;2024-03-02T06:19:53;4.50;99.90
22813;DHT22;11573;51.334;3.244;2024-03-02T06:22:20;4.50;99.90
22813;DHT22;11573;51.334;3.244;2024-03-02T06:24:49;4.40;99.90
22813;DHT22;11573;51.334;3.244;2024-03-02T06:27:16;4.40;99.90
22813;DHT22;11573;51.334;3.244;2024-03-02T06:29:44;4.40;99.90
22813;DHT22;11573;51.334;3.244;2024-03-02T06:32:11;4.50;99.90
22813;DHT22;11573;51.334;3.244;2024-03-02T06:34:38;4.40;99.90
22813;DHT22;11573;51.334;3.244;2024-03-02T06:37:05;4.50;99.90
22813;DHT22;11573;51.334;3.244;2024-03-02T06:39:32;4.40;99.90
22813;DHT22;11573;51.334;3.244;2024-03-02T06:42:01;4.40;99.90
22813;DHT22;11573;51.334;3.244;2024-03-02T06:44:28;4.40;99.90
22813;DHT22;11573;51.334;3.244;2024-03-02T06:46:55;4.50;99.90
22813;DHT22;11573;51.334;3.244;2024-03-02T06:49:22;4.50;99.90
22813;DHT22;11573;51.334;3.244;2024-03-02T06:51:49;4.40;99.90
22813;DHT22;11573;51.334;3.244;2024-03-02T06:54:16;4.40;99.90
22813;DHT22;11573;51.334;3.244;2024-03-02T06:56:44;4.40;99.90
22813;DHT22;11573;51.334;3.244;2024-03-02T06:59:11;4.50;99.90
22813;DHT22;11573;51.334;3.244;2024-03-02T07:01:38;4.50;99.90
22813;DHT22;11573;51.334;3.244;2024-03-02T07:04:05;4.50;99.90
22813;DHT22;11573;51.334;3.244;2024-03-02T07:06:33;4.60;99.90
22813;DHT22;11573;51.334;3.244;2024-03-02T07:09:00;4.60;99.90
22813;DHT22;11573;51.334;3.244;2024-03-02T07:11:27;4.60;99.90
22813;DHT22;11573;51.334;3.244;2024-03-02T07:13:54;4.70;99.90
22813;DHT22;11573;51.334;3.244;2024-03-02T07:16:21;4.70;99.90
22813;DHT22;11573;51.334;3.244;2024-03-02T07:18:51;4.80;99.90
22813;DHT22;11573;51.334;3.244;2024-03-02T07:21:18;4.80;99.90
22813;DHT22;11573;51.334;3.244;2024-03-02T07:23:46;4.80;99.90
22813;DHT22;11573;51.334;3.244;2024-03-02T07:26:12;4.90;99.90
22813;DHT22;11573;51.334;3.244;2024-03-02T07:28:42;5.00;99.90
22813;DHT22;11573;51.334;3.244;2024-03-02T07:31:10;5.10;99.90
22813;DHT22;11573;51.334;3.244;2024-03-02T07:33:37;5.20;99.90
22813;DHT22;11573;51.334;3.244;2024-03-02T07:36:05;5.20;99.90
22813;DHT22;11573;51.334;3.244;2024-03-02T07:38:32;5.20;99.90
22813;DHT22;11573;51.334;3.244;2024-03-02T07:41:01;5.30;99.90
22813;DHT22;11573;51.334;3.244;2024-03-02T07:43:28;5.40;99.90
22813;DHT22;11573;51.334;3.244;2024-03-02T07:45:55;5.40;99.90
22813;DHT22;11573;51.334;3.244;2024-03-02T07:48:23;5.50;99.90
22813;DHT22;11573;51.334;3.244;2024-03-02T07:50:50;5.60;99.90
22813;DHT22;11573;51.334;3.244;2024-03-02T07:53:17;5.60;99.90
22813;DHT22;11573;51.334;3.244;2024-03-02T07:55:44;5.70;99.90
22813;DHT22;11573;51.334;3.244;2024-03-02T07:58:11;5.70;99.90
22813;DHT22;11573;51.334;3.244;2024-03-02T08:00:39;5.80;99.90
22813;DHT22;11573;51.334;3.244;2024-03-02T08:03:07;5.90;99.90
22813;DHT22;11573;51.334;3.244;2024-03-02T08:05:38;6.00;99.90
22813;DHT22;11573;51.334;3.244;2024-03-02T08:08:06;6.00;99.90
22813;DHT22;11573;51.334;3.244;2024-03-02T08:10:33;6.10;99.90
22813;DHT22;11573;51.334;3.244;2024-03-02T08:13:00;6.10;99.90
22813;DHT22;11573;51.334;3.244;2024-03-02T08:15:28;6.20;99.90
22813;DHT22;11573;51.334;3.244;2024-03-02T08:17:55;6.20;99.90
22813;DHT22;11573;51.334;3.244;2024-03-02T08:20:23;6.30;99.90
22813;DHT22;11573;51.334;3.244;2024-03-02T08:22:50;6.40;99.90
22813;DHT22;11573;51.334;3.244;2024-03-02T08:25:17;6.50;99.90
22813;DHT22;11573;51.334;3.244;2024-03-02T08:27:44;6.50;99.90
22813;DHT22;11573;51.334;3.244;2024-03-02T08:30:12;6.60;99.90
22813;DHT22;11573;51.334;3.244;2024-03-02T08:32:39;6.70;99.90
22813;DHT22;11573;51.334;3.244;2024-03-02T08:35:07;6.70;99.90
22813;DHT22;11573;51.334;3.244;2024-03-02T08:37:34;6.80;99.90
22813;DHT22;11573;51.334;3.244;2024-03-02T08:40:01;6.80;99.90
22813;DHT22;11573;51.334;3.244;2024-03-02T08:42:30;6.90;99.90
22813;DHT22;11573;51.334;3.244;2024-03-02T08:44:57;7.00;99.90
22813;DHT22;11573;51.334;3.244;2024-03-02T08:47:24;7.10;99.90
22813;DHT22;11573;51.334;3.244;2024-03-02T08:49:52;7.20;99.90
22813;DHT22;11573;51.334;3.244;2024-03-02T08:52:18;7.30;99.90
22813;DHT22;11573;51.334;3.244;2024-03-02T08:54:45;7.40;99.90
22813;DHT22;11573;51.334;3.244;2024-03-02T08:57:12;7.50;99.90
22813;DHT22;11573;51.334;3.244;2024-03-02T08:59:39;7.70;99.90
22813;DHT22;11573;51.334;3.244;2024-03-02T09:02:06;7.90;99.90
22813;DHT22;11573;51.334;3.244;2024-03-02T09:04:33;8.10;99.90
22813;DHT22;11573;51.334;3.244;2024-03-02T09:07:01;8.20;99.90
22813;DHT22;11573;51.334;3.244;2024-03-02T09:09:29;8.30;99.90
22813;DHT22;11573;51.334;3.244;2024-03-02T09:11:56;8.40;99.90
22813;DHT22;11573;51.334;3.244;2024-03-02T09:14:24;8.40;99.90
22813;DHT22;11573;51.334;3.244;2024-03-02T09:16:52;8.30;99.90
22813;DHT22;11573;51.334;3.244;2024-03-02T09:19:19;8.30;99.90
22813;DHT22;11573;51.334;3.244;2024-03-02T09:21:45;8.30;99.90
22813;DHT22;11573;51.334;3.244;2024-03-02T09:24:13;8.30;99.90
22813;DHT22;11573;51.334;3.244;2024-03-02T09:26:44;8.30;99.90
22813;DHT22;11573;51.334;3.244;2024-03-02T09:29:11;8.40;99.90
22813;DHT22;11573;51.334;3.244;2024-03-02T09:31:42;8.50;99.90
22813;DHT22;11573;51.334;3.244;2024-03-02T09:34:09;8.60;99.90
22813;DHT22;11573;51.334;3.244;2024-03-02T09:36:36;8.70;99.90
22813;DHT22;11573;51.334;3.244;2024-03-02T09:39:03;8.70;99.90
22813;DHT22;11573;51.334;3.244;2024-03-02T09:41:33;8.80;99.90
22813;DHT22;11573;51.334;3.244;2024-03-02T09:44:00;8.80;99.90
22813;DHT22;11573;51.334;3.244;2024-03-02T09:46:27;8.90;99.90
22813;DHT22;11573;51.334;3.244;2024-03-02T09:48:54;9.00;99.90
22813;DHT22;11573;51.334;3.244;2024-03-02T09:51:22;9.00;99.90
22813;DHT22;11573;51.334;3.244;2024-03-02T09:53:50;9.10;99.90
22813;DHT22;11573;51.334;3.244;2024-03-02T09:56:18;9.10;99.90
22813;DHT22;11573;51.334;3.244;2024-03-02T09:58:47;9.20;99.90
22813;DHT22;11573;51.334;3.244;2024-03-02T10:01:14;9.20;99.90
22813;DHT22;11573;51.334;3.244;2024-03-02T10:03:41;9.10;99.90
22813;DHT22;11573;51.334;3.244;2024-03-02T10:06:21;9.10;99.90
22813;DHT22;11573;51.334;3.244;2024-03-02T10:08:49;9.20;99.90
22813;DHT22;11573;51.334;3.244;2024-03-02T10:14:13;9.40;99.90
22813;DHT22;11573;51.334;3.244;2024-03-02T10:16:44;9.50;99.90
22813;DHT22;11573;51.334;3.244;2024-03-02T10:19:22;9.70;99.90
22813;DHT22;11573;51.334;3.244;2024-03-02T10:21:51;9.70;99.90
22813;DHT22;11573;51.334;3.244;2024-03-02T10:24:19;9.80;99.90
22813;DHT22;11573;51.334;3.244;2024-03-02T10:26:47;9.90;99.90
22813;DHT22;11573;51.334;3.244;2024-03-02T10:29:14;9.90;99.90
22813;DHT22;11573;51.334;3.244;2024-03-02T10:31:44;9.90;99.90
22813;DHT22;11573;51.334;3.244;2024-03-02T10:34:15;9.70;99.90
22813;DHT22;11573;51.334;3.244;2024-03-02T10:36:44;9.80;99.90
22813;DHT22;11573;51.334;3.244;2024-03-02T10:39:13;9.80;99.90
22813;DHT22;11573;51.334;3.244;2024-03-02T10:41:41;9.90;99.90
22813;DHT22;11573;51.334;3.244;2024-03-02T10:44:09;10.00;99.90
22813;DHT22;11573;51.334;3.244;2024-03-02T10:46:37;10.10;99.90
22813;DHT22;11573;51.334;3.244;2024-03-02T10:49:05;10.20;99.90
22813;DHT22;11573;51.334;3.244;2024-03-02T10:51:35;10.30;99.90
22813;DHT22;11573;51.334;3.244;2024-03-02T10:54:05;10.30;99.90
22813;DHT22;11573;51.334;3.244;2024-03-02T11:01:56;10.70;99.90
22813;DHT22;11573;51.334;3.244;2024-03-02T11:04:31;10.70;99.90
22813;DHT22;11573;51.334;3.244;2024-03-02T11:07:02;11.00;99.90
22813;DHT22;11573;51.334;3.244;2024-03-02T11:09:30;10.90;99.90
22813;DHT22;11573;51.334;3.244;2024-03-02T11:12:13;10.80;99.90
22813;DHT22;11573;51.334;3.244;2024-03-02T11:14:45;10.60;99.90
22813;DHT22;11573;51.334;3.244;2024-03-02T11:17:14;10.30;99.90
22813;DHT22;11573;51.334;3.244;2024-03-02T11:19:44;10.30;99.90
22813;DHT22;11573;51.334;3.244;2024-03-02T11:22:13;10.30;99.90
22813;DHT22;11573;51.334;3.244;2024-03-02T11:24:51;10.40;99.90
22813;DHT22;11573;51.334;3.244;2024-03-02T11:33:00;11.50;99.90
22813;DHT22;11573;51.334;3.244;2024-03-02T11:35:28;11.60;99.90
22813;DHT22;11573;51.334;3.244;2024-03-02T11:37:55;11.40;99.90
22813;DHT22;11573;51.334;3.244;2024-03-02T11:40:25;11.30;99.90
22813;DHT22;11573;51.334;3.244;2024-03-02T11:42:53;11.10;99.90
22813;DHT22;11573;51.334;3.244;2024-03-02T11:45:24;11.00;99.90
22813;DHT22;11573;51.334;3.244;2024-03-02T11:47:53;11.00;99.90
22813;DHT22;11573;51.334;3.244;2024-03-02T11:50:46;11.10;99.90
22813;DHT22;11573;51.334;3.244;2024-03-02T11:53:14;11.30;99.90
22813;DHT22;11573;51.334;3.244;2024-03-02T11:55:41;11.30;99.90
22813;DHT22;11573;51.334;3.244;2024-03-02T11:58:14;11.10;99.90
22813;DHT22;11573;51.334;3.244;2024-03-02T12:00:41;11.10;99.90
22813;DHT22;11573;51.334;3.244;2024-03-02T12:03:10;11.00;99.90
22813;DHT22;11573;51.334;3.244;2024-03-02T12:05:39;10.90;99.90
22813;DHT22;11573;51.334;3.244;2024-03-02T12:08:07;10.80;99.90
22813;DHT22;11573;51.334;3.244;2024-03-02T12:10:35;10.70;99.90
22813;DHT22;11573;51.334;3.244;2024-03-02T12:13:04;10.70;99.90
22813;DHT22;11573;51.334;3.244;2024-03-02T12:15:36;10.80;99.90
22813;DHT22;11573;51.334;3.244;2024-03-02T12:18:06;10.90;99.90
22813;DHT22;11573;51.334;3.244;2024-03-02T12:20:34;11.00;99.90
22813;DHT22;11573;51.334;3.244;2024-03-02T12:23:04;11.00;99.90
22813;DHT22;11573;51.334;3.244;2024-03-02T12:25:36;11.10;99.90
22813;DHT22;11573;51.334;3.244;2024-03-02T12:28:04;11.00;99.90
22813;DHT22;11573;51.334;3.244;2024-03-02T12:30:35;11.00;99.90
22813;DHT22;11573;51.334;3.244;2024-03-02T12:33:02;11.00;99.90
22813;DHT22;11573;51.334;3.244;2024-03-02T12:35:29;11.00;99.90
22813;DHT22;11573;51.334;3.244;2024-03-02T12:37:56;10.90;99.90
22813;DHT22;11573;51.334;3.244;2024-03-02T12:40:23;10.90;99.90
22813;DHT22;11573;51.334;3.244;2024-03-02T12:42:51;10.90;99.90
22813;DHT22;11573;51.334;3.244;2024-03-02T12:45:19;10.70;99.90
22813;DHT22;11573;51.334;3.244;2024-03-02T12:47:52;10.50;99.90
22813;DHT22;11573;51.334;3.244;2024-03-02T12:50:21;10.30;99.90
22813;DHT22;11573;51.334;3.244;2024-03-02T12:52:54;10.00;99.90
22813;DHT22;11573;51.334;3.244;2024-03-02T12:55:23;10.00;99.90
22813;DHT22;11573;51.334;3.244;2024-03-02T12:57:52;10.10;99.90
22813;DHT22;11573;51.334;3.244;2024-03-02T13:00:21;10.20;99.90
22813;DHT22;11573;51.334;3.244;2024-03-02T13:02:50;10.10;99.90
22813;DHT22;11573;51.334;3.244;2024-03-02T13:05:19;10.10;99.90
22813;DHT22;11573;51.334;3.244;2024-03-02T13:07:47;10.10;99.90
22813;DHT22;11573;51.334;3.244;2024-03-02T13:10:17;10.10;99.90
22813;DHT22;11573;51.334;3.244;2024-03-02T13:12:45;10.10;99.90
22813;DHT22;11573;51.334;3.244;2024-03-02T13:15:13;10.20;99.90
22813;DHT22;11573;51.334;3.244;2024-03-02T13:17:47;10.20;99.90
22813;DHT22;11573;51.334;3.244;2024-03-02T13:20:15;10.10;99.90
22813;DHT22;11573;51.334;3.244;2024-03-02T13:22:42;10.10;99.90
22813;DHT22;11573;51.334;3.244;2024-03-02T13:25:09;10.00;99.90
22813;DHT22;11573;51.334;3.244;2024-03-02T13:27:38;9.90;99.90
22813;DHT22;11573;51.334;3.244;2024-03-02T13:30:06;9.90;99.90
22813;DHT22;11573;51.334;3.244;2024-03-02T13:32:36;9.80;99.90
22813;DHT22;11573;51.334;3.244;2024-03-02T13:35:04;9.80;99.90
22813;DHT22;11573;51.334;3.244;2024-03-02T13:37:32;9.80;99.90
22813;DHT22;11573;51.334;3.244;2024-03-02T13:39:59;9.80;99.90
22813;DHT22;11573;51.334;3.244;2024-03-02T13:42:26;9.90;99.90
22813;DHT22;11573;51.334;3.244;2024-03-02T13:44:54;9.90;99.90
22813;DHT22;11573;51.334;3.244;2024-03-02T13:47:22;9.90;99.90
22813;DHT22;11573;51.334;3.244;2024-03-02T13:49:49;10.00;99.90
22813;DHT22;11573;51.334;3.244;2024-03-02T13:52:17;9.90;99.90
22813;DHT22;11573;51.334;3.244;2024-03-02T13:54:45;9.90;99.90
22813;DHT22;11573;51.334;3.244;2024-03-02T13:57:13;9.90;99.90
22813;DHT22;11573;51.334;3.244;2024-03-02T13:59:42;9.90;99.90
22813;DHT22;11573;51.334;3.244;2024-03-02T14:02:11;10.10;99.90
22813;DHT22;11573;51.334;3.244;2024-03-02T14:04:39;10.10;99.90
22813;DHT22;11573;51.334;3.244;2024-03-02T14:07:07;10.20;99.90
22813;DHT22;11573;51.334;3.244;2024-03-02T14:09:35;10.30;99.90
22813;DHT22;11573;51.334;3.244;2024-03-02T14:12:04;10.20;99.90
22813;DHT22;11573;51.334;3.244;2024-03-02T14:14:31;10.30;99.90
22813;DHT22;11573;51.334;3.244;2024-03-02T14:16:59;10.20;99.90
22813;DHT22;11573;51.334;3.244;2024-03-02T14:19:33;10.20;99.90
22813;DHT22;11573;51.334;3.244;2024-03-02T14:22:00;10.20;99.90
22813;DHT22;11573;51.334;3.244;2024-03-02T14:24:28;10.20;99.90
22813;DHT22;11573;51.334;3.244;2024-03-02T14:26:56;10.10;99.90
22813;DHT22;11573;51.334;3.244;2024-03-02T14:29:45;10.10;99.90
22813;DHT22;11573;51.334;3.244;2024-03-02T14:32:12;10.10;99.90
22813;DHT22;11573;51.334;3.244;2024-03-02T14:34:39;10.10;99.90
22813;DHT22;11573;51.334;3.244;2024-03-02T14:37:06;10.10;99.90
22813;DHT22;11573;51.334;3.244;2024-03-02T14:39:35;10.10;99.90
22813;DHT22;11573;51.334;3.244;2024-03-02T14:42:05;10.10;99.90
22813;DHT22;11573;51.334;3.244;2024-03-02T14:44:33;10.00;99.90
22813;DHT22;11573;51.334;3.244;2024-03-02T14:47:02;9.90;99.90
22813;DHT22;11573;51.334;3.244;2024-03-02T14:49:31;9.80;99.90
22813;DHT22;11573;51.334;3.244;2024-03-02T14:52:04;9.80;99.90
22813;DHT22;11573;51.334;3.244;2024-03-02T14:54:31;9.90;99.90
22813;DHT22;11573;51.334;3.244;2024-03-02T14:56:59;9.80;99.90
22813;DHT22;11573;51.334;3.244;2024-03-02T14:59:26;9.70;99.90
22813;DHT22;11573;51.334;3.244;2024-03-02T15:01:55;9.70;99.90
22813;DHT22;11573;51.334;3.244;2024-03-02T15:04:22;9.60;99.90
22813;DHT22;11573;51.334;3.244;2024-03-02T15:06:50;9.70;99.90
22813;DHT22;11573;51.334;3.244;2024-03-02T15:09:17;9.70;99.90
22813;DHT22;11573;51.334;3.244;2024-03-02T15:11:47;9.70;99.90
22813;DHT22;11573;51.334;3.244;2024-03-02T15:14:16;9.60;99.90
22813;DHT22;11573;51.334;3.244;2024-03-02T15:16:49;9.40;99.90
22813;DHT22;11573;51.334;3.244;2024-03-02T15:19:17;9.20;99.90
22813;DHT22;11573;51.334;3.244;2024-03-02T15:21:44;9.10;99.90
22813;DHT22;11573;51.334;3.244;2024-03-02T15:24:11;8.90;99.90
22813;DHT22;11573;51.334;3.244;2024-03-02T15:26:39;8.80;99.90
22813;DHT22;11573;51.334;3.244;2024-03-02T15:29:06;8.80;99.90
22813;DHT22;11573;51.334;3.244;2024-03-02T15:31:35;8.70;99.90
22813;DHT22;11573;51.334;3.244;2024-03-02T15:34:03;8.60;99.90
22813;DHT22;11573;51.334;3.244;2024-03-02T15:36:32;8.50;99.90
22813;DHT22;11573;51.334;3.244;2024-03-02T15:39:02;8.40;99.90
22813;DHT22;11573;51.334;3.244;2024-03-02T15:41:32;8.40;99.90
22813;DHT22;11573;51.334;3.244;2024-03-02T15:43:59;8.30;99.90
22813;DHT22;11573;51.334;3.244;2024-03-02T15:46:27;8.30;99.90
22813;DHT22;11573;51.334;3.244;2024-03-02T15:48:55;8.20;99.90
22813;DHT22;11573;51.334;3.244;2024-03-02T15:51:26;8.20;99.90
22813;DHT22;11573;51.334;3.244;2024-03-02T15:53:53;8.20;99.90
22813;DHT22;11573;51.334;3.244;2024-03-02T15:56:21;8.30;99.90
22813;DHT22;11573;51.334;3.244;2024-03-02T15:58:48;8.20;99.90
22813;DHT22;11573;51.334;3.244;2024-03-02T16:01:16;8.20;99.90
22813;DHT22;11573;51.334;3.244;2024-03-02T16:03:43;8.20;99.90